createdAt,value
2019-04-07T00:01:52.630Z,4.50
2019-04-07T00:04:20.704Z,4.40
2019-04-07T00:06:48.133Z,4.40
2019-04-07T00:09:15.565Z,4.40
2019-04-07T00:11:44.060Z,4.30
2019-04-07T00:14:12.643Z,4.30
2019-04-07T00:16:40.373Z,4.20
2019-04-07T00:19:08.172Z,4.20
2019-04-07T00:21:35.651Z,4.20
2019-04-07T00:24:03.528Z,4.00
2019-04-07T00:28:59.216Z,3.90
2019-04-07T00:31:26.873Z,3.90
2019-04-07T00:33:54.546Z,3.80
2019-04-07T00:36:22.974Z,3.90
2019-04-07T00:38:51.488Z,3.80
2019-04-07T00:41:20.137Z,3.90
2019-04-07T00:43:47.698Z,3.80
2019-04-07T00:46:15.695Z,3.70
2019-04-07T00:48:44.089Z,3.60
2019-04-07T00:51:12.479Z,3.60
2019-04-07T00:56:08.301Z,3.50
2019-04-07T00:58:35.978Z,3.50
2019-04-07T01:01:05.357Z,3.50
2019-04-07T01:03:33.708Z,3.40
2019-04-07T01:06:02.272Z,3.40
2019-04-07T01:08:30.924Z,3.50
2019-04-07T01:10:58.657Z,3.50
2019-04-07T01:15:54.877Z,4.10
2019-04-07T01:18:23.161Z,4.30
2019-04-07T01:20:51.923Z,4.30
2019-04-07T01:23:20.217Z,4.30
2019-04-07T01:25:50.041Z,4.20
2019-04-07T01:28:18.646Z,4.30
2019-04-07T01:30:46.934Z,4.00
2019-04-07T01:35:47.942Z,3.80
2019-04-07T01:38:13.688Z,3.70
2019-04-07T01:40:44.378Z,3.70
2019-04-07T01:46:24.965Z,3.90
2019-04-07T01:49:12.914Z,3.90
2019-04-07T01:52:04.211Z,3.80
2019-04-07T01:54:49.394Z,3.80
2019-04-07T02:00:12.771Z,4.00
2019-04-07T02:02:53.111Z,4.00
2019-04-07T02:05:44.247Z,3.90
2019-04-07T02:17:01.678Z,3.60
2019-04-07T02:25:25.332Z,3.30
2019-04-07T02:28:30.822Z,3.20
2019-04-07T02:31:19.124Z,3.20
2019-04-07T02:37:06.689Z,3.20
2019-04-07T02:42:21.537Z,3.00
2019-04-07T02:48:01.167Z,2.90
2019-04-07T02:50:43.984Z,2.80
2019-04-07T02:53:34.885Z,2.80
2019-04-07T02:56:25.786Z,2.80
2019-04-07T02:59:01.447Z,2.80
2019-04-07T03:01:35.145Z,2.80
2019-04-07T03:04:26.295Z,2.80
2019-04-07T03:09:50.407Z,2.70
2019-04-07T03:12:37.231Z,2.70
2019-04-07T03:15:25.445Z,2.60
2019-04-07T03:20:36.162Z,2.40
2019-04-07T03:23:22.291Z,2.40
2019-04-07T03:26:27.957Z,2.30
2019-04-07T03:29:21.450Z,2.50
2019-04-07T03:32:00.605Z,2.70
2019-04-07T03:34:41.311Z,3.00
2019-04-07T03:40:11.594Z,3.20
2019-04-07T03:43:05.205Z,3.00
2019-04-07T03:45:53.771Z,2.60
2019-04-07T03:48:35.353Z,2.60
2019-04-07T03:51:23.216Z,2.30
2019-04-07T03:54:05.605Z,2.20
2019-04-07T03:56:52.983Z,2.10
2019-04-07T03:59:52.976Z,2.10
2019-04-07T04:02:46.514Z,2.10
2019-04-07T04:05:22.396Z,2.20
2019-04-07T04:08:02.438Z,2.20
2019-04-07T04:10:36.558Z,2.30
2019-04-07T04:15:57.144Z,2.30
2019-04-07T04:18:24.913Z,2.40
2019-04-07T04:20:52.836Z,2.40
2019-04-07T04:23:20.720Z,2.40
2019-04-07T04:25:49.094Z,2.40
2019-04-07T04:28:17.022Z,2.30
2019-04-07T04:30:44.665Z,2.30
2019-04-07T04:33:12.777Z,2.30
2019-04-07T04:35:40.969Z,2.30
2019-04-07T04:38:08.786Z,2.30
2019-04-07T04:40:37.334Z,2.30
2019-04-07T04:43:05.377Z,2.40
2019-04-07T04:45:33.812Z,2.50
2019-04-07T04:48:02.545Z,2.60
2019-04-07T04:50:30.325Z,2.70
2019-04-07T04:52:57.844Z,2.80
2019-04-07T04:55:25.777Z,2.80
2019-04-07T04:57:54.482Z,2.70
2019-04-07T05:00:22.120Z,2.70
2019-04-07T05:02:50.449Z,2.60
2019-04-07T05:05:18.222Z,2.60
2019-04-07T05:10:15.647Z,2.80
2019-04-07T05:12:43.679Z,2.90
2019-04-07T05:15:11.942Z,3.00
2019-04-07T05:17:40.325Z,3.20
2019-04-07T05:20:08.189Z,3.30
2019-04-07T05:22:35.867Z,3.50
2019-04-07T05:25:05.099Z,3.60
2019-04-07T05:27:32.986Z,3.90
2019-04-07T05:30:01.206Z,4.10
2019-04-07T05:32:29.593Z,4.20
2019-04-07T05:34:57.849Z,4.40
2019-04-07T05:37:26.132Z,4.50
2019-04-07T05:39:55.015Z,4.50
2019-04-07T05:42:23.510Z,4.60
2019-04-07T05:44:52.887Z,4.80
2019-04-07T05:49:54.458Z,5.20
2019-04-07T05:52:19.413Z,5.30
2019-04-07T05:57:17.652Z,5.40
2019-04-07T05:59:46.020Z,5.70
2019-04-07T06:02:14.408Z,6.50
2019-04-07T06:07:10.301Z,6.70
2019-04-07T06:09:38.854Z,6.90
2019-04-07T06:12:09.591Z,7.10
2019-04-07T06:14:36.838Z,7.40
2019-04-07T06:17:05.024Z,7.40
2019-04-07T06:19:37.459Z,7.50
2019-04-07T06:22:02.507Z,7.60
2019-04-07T06:24:32.498Z,7.60
2019-04-07T06:27:00.848Z,7.60
2019-04-07T06:29:28.976Z,8.00
2019-04-07T06:31:57.835Z,8.00
2019-04-07T06:34:25.806Z,8.30
2019-04-07T06:39:24.127Z,8.60
2019-04-07T06:41:52.430Z,8.80
2019-04-07T06:44:22.416Z,8.90
2019-04-07T06:46:59.098Z,8.90
2019-04-07T06:49:31.920Z,8.90
2019-04-07T06:52:28.585Z,9.60
2019-04-07T06:55:32.823Z,10.40
2019-04-07T06:58:08.302Z,11.50
2019-04-07T07:00:56.809Z,11.50
2019-04-07T07:03:44.867Z,14.00
2019-04-07T07:06:25.234Z,14.20
2019-04-07T07:09:30.687Z,14.00
2019-04-07T07:14:52.875Z,12.30
2019-04-07T07:17:28.383Z,12.20
2019-04-07T07:20:05.636Z,12.50
2019-04-07T07:22:46.747Z,15.20
2019-04-07T07:25:13.320Z,15.80
2019-04-07T07:27:42.910Z,15.50
2019-04-07T07:30:10.851Z,15.50
2019-04-07T07:32:38.916Z,14.90
2019-04-07T07:35:07.946Z,14.60
2019-04-07T07:37:35.980Z,14.50
2019-04-07T07:40:07.471Z,14.70
2019-04-07T07:42:34.233Z,14.90
2019-04-07T07:45:02.641Z,14.70
2019-04-07T07:47:30.531Z,14.40
2019-04-07T07:49:59.780Z,14.40
2019-04-07T07:52:27.724Z,14.30
2019-04-07T07:57:26.099Z,14.80
2019-04-07T07:59:55.208Z,15.10
2019-04-07T08:02:22.668Z,15.40
2019-04-07T08:04:51.054Z,15.50
2019-04-07T08:07:19.364Z,15.50
2019-04-07T08:09:46.996Z,15.80
2019-04-07T08:12:15.170Z,19.60
2019-04-07T08:14:44.814Z,20.90
2019-04-07T08:17:14.920Z,21.30
2019-04-07T08:19:44.559Z,22.40
2019-04-07T08:22:12.880Z,23.50
2019-04-07T08:24:41.602Z,22.60
2019-04-07T08:27:09.178Z,22.90
2019-04-07T08:29:38.746Z,23.10
2019-04-07T08:32:06.593Z,22.40
2019-04-07T08:34:34.903Z,23.50
2019-04-07T08:37:03.527Z,23.40
2019-04-07T08:39:34.859Z,23.50
2019-04-07T08:42:04.611Z,23.60
2019-04-07T08:44:31.559Z,23.80
2019-04-07T08:46:59.059Z,23.40
2019-04-07T08:49:27.633Z,23.40
2019-04-07T08:51:56.101Z,24.10
2019-04-07T08:54:23.944Z,23.40
2019-04-07T08:56:52.071Z,23.20
2019-04-07T08:59:19.796Z,24.30
2019-04-07T09:01:47.725Z,24.40
2019-04-07T09:04:17.734Z,24.40
2019-04-07T09:06:45.565Z,24.50
2019-04-07T09:09:14.138Z,23.90
2019-04-07T09:11:42.510Z,22.90
2019-04-07T09:14:10.925Z,20.90
2019-04-07T09:16:58.939Z,20.70
2019-04-07T09:19:36.830Z,20.10
2019-04-07T09:22:31.600Z,19.80
2019-04-07T09:25:10.841Z,19.40
2019-04-07T09:28:10.059Z,19.20
2019-04-07T09:30:56.547Z,19.10
2019-04-07T09:33:42.150Z,19.10
2019-04-07T09:36:32.351Z,18.90
2019-04-07T09:39:06.781Z,18.80
2019-04-07T09:41:45.910Z,18.70
2019-04-07T09:44:25.426Z,18.80
2019-04-07T09:47:07.551Z,18.90
2019-04-07T09:49:56.301Z,18.40
2019-04-07T09:52:45.114Z,18.20
2019-04-07T09:55:24.354Z,18.90
2019-04-07T09:58:18.183Z,19.10
2019-04-07T10:01:18.932Z,19.00
2019-04-07T10:03:51.541Z,19.50
2019-04-07T10:06:44.716Z,19.50
2019-04-07T10:09:21.744Z,19.60
2019-04-07T10:12:10.226Z,19.30
2019-04-07T10:14:51.526Z,19.80
2019-04-07T10:17:57.613Z,19.70
2019-04-07T10:20:36.894Z,20.30
2019-04-07T10:23:20.806Z,21.10
2019-04-07T10:25:56.205Z,21.20
2019-04-07T10:28:51.550Z,21.50
2019-04-07T10:31:38.161Z,21.50
2019-04-07T10:34:32.005Z,23.50
2019-04-07T10:37:28.506Z,23.50
2019-04-07T10:40:18.934Z,24.30
2019-04-07T10:42:51.532Z,24.90
2019-04-07T10:45:47.297Z,23.30
2019-04-07T10:48:33.319Z,23.00
2019-04-07T10:51:27.389Z,24.10
2019-04-07T10:54:05.777Z,24.00
2019-04-07T10:56:55.206Z,25.30
2019-04-07T10:59:57.987Z,25.60
2019-04-07T11:02:39.317Z,25.80
2019-04-07T11:05:33.343Z,26.10
2019-04-07T11:08:12.821Z,26.20
2019-04-07T11:10:59.987Z,26.40
2019-04-07T11:13:38.823Z,26.60
2019-04-07T11:16:24.830Z,26.40
2019-04-07T11:19:12.948Z,26.30
2019-04-07T11:21:57.052Z,21.70
2019-04-07T11:24:52.742Z,20.50
2019-04-07T11:27:46.710Z,20.50
2019-04-07T11:30:39.686Z,20.20
2019-04-07T11:33:19.298Z,19.60
2019-04-07T11:38:59.355Z,18.70
2019-04-07T11:41:47.096Z,18.70
2019-04-07T11:44:20.337Z,19.60
2019-04-07T11:46:54.075Z,19.60
2019-04-07T11:49:27.889Z,19.60
2019-04-07T11:52:23.645Z,19.70
2019-04-07T11:55:10.153Z,19.80
2019-04-07T11:57:45.264Z,19.70
2019-04-07T12:00:39.233Z,19.80
2019-04-07T12:03:14.934Z,19.70
2019-04-07T12:06:08.676Z,19.20
2019-04-07T12:09:08.460Z,18.80
2019-04-07T12:11:46.416Z,18.80
2019-04-07T12:14:21.852Z,18.90
2019-04-07T12:17:09.390Z,18.90
2019-04-07T12:19:55.119Z,18.80
2019-04-07T12:22:30.668Z,18.50
2019-04-07T12:25:11.197Z,19.50
2019-04-07T12:27:58.062Z,19.80
2019-04-07T12:30:50.267Z,19.20
2019-04-07T12:33:39.275Z,18.70
2019-04-07T12:36:17.289Z,18.90
2019-04-07T12:39:01.837Z,19.60
2019-04-07T12:42:06.258Z,19.60
2019-04-07T12:44:52.796Z,19.70
2019-04-07T12:47:30.062Z,19.60
2019-04-07T12:50:18.886Z,19.10
2019-04-07T12:52:59.409Z,18.60
2019-04-07T12:55:49.937Z,18.50
2019-04-07T12:58:27.728Z,18.80
2019-04-07T13:01:19.296Z,18.80
2019-04-07T13:03:52.502Z,18.70
2019-04-07T13:09:16.464Z,18.90
2019-04-07T13:12:13.981Z,19.00
2019-04-07T13:15:10.961Z,18.80
2019-04-07T13:17:57.175Z,18.60
2019-04-07T13:20:42.563Z,18.60
2019-04-07T13:23:23.841Z,18.70
2019-04-07T13:26:00.609Z,18.60
2019-04-07T13:28:35.836Z,18.60
2019-04-07T13:31:19.106Z,18.60
2019-04-07T13:34:09.396Z,18.60
2019-04-07T13:36:54.468Z,18.00
2019-04-07T13:39:54.510Z,17.90
2019-04-07T13:42:48.855Z,17.90
2019-04-07T13:45:34.444Z,17.80
2019-04-07T13:48:24.575Z,17.80
2019-04-07T13:51:11.750Z,18.10
2019-04-07T13:56:52.299Z,17.80
2019-04-07T13:59:33.933Z,17.80
2019-04-07T14:02:12.102Z,17.70
2019-04-07T14:04:48.911Z,17.50
2019-04-07T14:07:36.043Z,17.50
2019-04-07T14:10:31.821Z,17.10
2019-04-07T14:13:07.363Z,17.00
2019-04-07T14:15:53.185Z,16.90
2019-04-07T14:18:29.372Z,17.00
2019-04-07T14:23:54.476Z,16.60
2019-04-07T14:26:36.664Z,16.50
2019-04-07T14:37:41.845Z,16.30
2019-04-07T14:40:27.979Z,16.30
2019-04-07T14:48:50.165Z,16.00
2019-04-07T14:54:09.914Z,16.00
2019-04-07T14:56:56.395Z,16.10
2019-04-07T14:59:35.160Z,16.10
2019-04-07T15:02:04.223Z,16.10
2019-04-07T15:04:40.788Z,16.10
2019-04-07T15:10:10.538Z,16.20
2019-04-07T15:15:28.255Z,16.30
2019-04-07T15:17:56.250Z,16.50
2019-04-07T15:20:25.047Z,16.40
2019-04-07T15:22:53.952Z,16.30
2019-04-07T15:25:22.907Z,16.30
2019-04-07T15:27:52.758Z,16.40
2019-04-07T15:30:22.276Z,16.40
2019-04-07T15:35:18.871Z,16.50
2019-04-07T15:37:51.977Z,16.50
2019-04-07T15:57:59.652Z,16.00
2019-04-07T16:00:28.343Z,16.00
2019-04-07T21:22:35.057Z,11.70
